createdAt,value
2018-03-28T00:01:50.834Z,100131.40
2018-03-28T00:04:25.832Z,100125.78
2018-03-28T00:07:00.948Z,100126.29
2018-03-28T00:09:36.379Z,100119.92
2018-03-28T00:12:11.735Z,100118.00
2018-03-28T00:14:46.180Z,100114.06
2018-03-28T00:17:21.522Z,100116.75
2018-03-28T00:19:56.596Z,100111.89
2018-03-28T00:22:31.551Z,100121.56
2018-03-28T00:25:06.779Z,100110.59
2018-03-28T00:27:41.667Z,100102.57
2018-03-28T00:30:16.989Z,100097.94
2018-03-28T00:32:52.492Z,100083.78
2018-03-28T00:35:27.731Z,100086.22
2018-03-28T00:38:02.276Z,100082.11
2018-03-28T00:40:37.126Z,100082.95
2018-03-28T00:43:11.996Z,100078.87
2018-03-28T00:45:48.572Z,100075.95
2018-03-28T00:48:23.568Z,100082.20
2018-03-28T00:50:57.987Z,100070.16
2018-03-28T00:53:33.526Z,100068.61
2018-03-28T00:56:08.709Z,100065.83
2018-03-28T00:58:43.491Z,100061.17
2018-03-28T01:01:18.505Z,100060.77
2018-03-28T01:03:53.660Z,100059.31
2018-03-28T01:06:28.552Z,100054.08
2018-03-28T01:09:03.232Z,100056.61
2018-03-28T01:11:38.557Z,100052.59
2018-03-28T01:14:13.659Z,100050.05
2018-03-28T01:16:53.773Z,100054.37
2018-03-28T01:19:28.790Z,100054.34
2018-03-28T01:22:03.348Z,100047.75
2018-03-28T01:24:38.244Z,100042.45
2018-03-28T01:27:13.097Z,100043.73
2018-03-28T01:29:48.734Z,100048.53
2018-03-28T01:32:23.924Z,100053.20
2018-03-28T01:34:58.759Z,100045.01
2018-03-28T01:37:33.763Z,100049.70
2018-03-28T01:40:08.679Z,100046.61
2018-03-28T01:42:43.788Z,100040.44
2018-03-28T01:45:18.680Z,100045.58
2018-03-28T01:47:53.754Z,100037.77
2018-03-28T01:50:28.711Z,100045.88
2018-03-28T01:53:03.906Z,100042.70
2018-03-28T01:55:38.683Z,100039.22
2018-03-28T01:58:13.661Z,100041.39
2018-03-28T02:00:48.607Z,100040.02
2018-03-28T02:03:23.207Z,100031.06
2018-03-28T02:05:58.143Z,100031.69
2018-03-28T02:08:32.867Z,100023.23
2018-03-28T02:11:07.943Z,100026.68
2018-03-28T02:13:42.803Z,100027.14
2018-03-28T02:16:17.511Z,100032.50
2018-03-28T02:18:52.824Z,100027.39
2018-03-28T02:21:27.662Z,100030.45
2018-03-28T02:24:02.819Z,100027.89
2018-03-28T02:26:37.748Z,100027.18
2018-03-28T02:29:13.024Z,100030.85
2018-03-28T02:31:47.957Z,100026.50
2018-03-28T02:34:22.876Z,100023.07
2018-03-28T02:36:58.716Z,100018.62
2018-03-28T02:39:33.539Z,100014.23
2018-03-28T02:42:08.388Z,100018.75
2018-03-28T02:44:43.120Z,100020.52
2018-03-28T02:47:18.252Z,100014.17
2018-03-28T02:49:52.999Z,100019.46
2018-03-28T02:52:28.013Z,100015.72
2018-03-28T02:55:03.152Z,100016.84
2018-03-28T02:57:38.003Z,100016.87
2018-03-28T03:00:12.803Z,100013.48
2018-03-28T03:02:47.851Z,100008.44
2018-03-28T03:05:22.459Z,100014.36
2018-03-28T03:07:57.871Z,100013.39
2018-03-28T03:10:33.022Z,100013.55
2018-03-28T03:13:07.899Z,100009.84
2018-03-28T03:15:43.012Z,100007.10
2018-03-28T03:18:17.996Z,100000.53
2018-03-28T03:20:53.001Z,99998.47
2018-03-28T03:23:28.204Z,99998.41
2018-03-28T03:26:02.588Z,99995.80
2018-03-28T03:28:37.385Z,99995.80
2018-03-28T03:31:12.284Z,99996.80
2018-03-28T03:33:47.510Z,99991.33
2018-03-28T03:36:22.312Z,99997.52
2018-03-28T03:38:57.255Z,99987.99
2018-03-28T03:41:32.032Z,99989.67
2018-03-28T03:44:07.143Z,99988.77
2018-03-28T03:46:42.176Z,99976.54
2018-03-28T03:49:17.620Z,99983.85
2018-03-28T03:51:52.983Z,99976.60
2018-03-28T03:54:27.591Z,99985.03
2018-03-28T03:57:02.480Z,99990.02
2018-03-28T03:59:37.396Z,99997.86
2018-03-28T04:02:12.571Z,100002.06
2018-03-28T04:04:47.251Z,100000.37
2018-03-28T04:07:22.623Z,99999.35
2018-03-28T04:09:57.342Z,100007.51
2018-03-28T04:12:32.146Z,100000.37
2018-03-28T04:15:07.999Z,99996.30
2018-03-28T04:17:47.062Z,99990.95
2018-03-28T04:20:22.166Z,99991.48
2018-03-28T04:22:57.191Z,99983.64
2018-03-28T04:25:32.173Z,99986.91
2018-03-28T04:28:07.146Z,99978.41
2018-03-28T04:30:42.048Z,99980.92
2018-03-28T04:33:17.247Z,99982.39
2018-03-28T04:35:52.790Z,99968.14
2018-03-28T04:38:27.437Z,99970.66
2018-03-28T04:41:02.321Z,99968.52
2018-03-28T04:43:37.436Z,99961.42
2018-03-28T04:46:12.434Z,99962.75
2018-03-28T04:48:47.418Z,99958.92
2018-03-28T04:51:22.512Z,99964.73
2018-03-28T04:53:57.419Z,99956.79
2018-03-28T04:56:32.408Z,99958.98
2018-03-28T04:59:07.736Z,99960.64
2018-03-28T05:01:42.621Z,99965.84
2018-03-28T05:04:17.904Z,99962.34
2018-03-28T05:06:53.056Z,99959.42
2018-03-28T05:09:28.364Z,99970.14
2018-03-28T05:12:03.485Z,99967.11
2018-03-28T05:14:38.580Z,99966.94
2018-03-28T05:17:14.196Z,99970.02
2018-03-28T05:19:48.792Z,99963.99
2018-03-28T05:22:24.198Z,99964.77
2018-03-28T05:24:58.842Z,99973.11
2018-03-28T05:27:33.780Z,99962.30
2018-03-28T05:30:09.134Z,99965.22
2018-03-28T05:32:43.561Z,99966.25
2018-03-28T05:35:19.316Z,99966.19
2018-03-28T05:37:54.506Z,99957.41
2018-03-28T05:40:29.666Z,99951.58
2018-03-28T05:43:05.187Z,99956.95
2018-03-28T05:45:39.607Z,99951.66
2018-03-28T05:48:14.648Z,99952.69
2018-03-28T05:50:49.420Z,99947.63
2018-03-28T05:53:24.798Z,99951.66
2018-03-28T05:55:59.619Z,99966.70
2018-03-28T05:58:34.402Z,99980.58
2018-03-28T06:01:09.115Z,99971.58
2018-03-28T06:03:44.339Z,99989.24
2018-03-28T06:06:19.452Z,99990.52
2018-03-28T06:08:55.360Z,99992.66
2018-03-28T06:11:30.283Z,99986.20
2018-03-28T06:14:04.986Z,99991.34
2018-03-28T06:16:40.396Z,99996.06
2018-03-28T06:19:15.258Z,99988.98
2018-03-28T06:21:50.415Z,99994.86
2018-03-28T06:24:25.668Z,99995.45
2018-03-28T06:27:00.839Z,99992.61
2018-03-28T06:29:35.942Z,99993.02
2018-03-28T06:32:11.767Z,99992.05
2018-03-28T06:34:46.507Z,99992.36
2018-03-28T06:37:21.632Z,99989.25
2018-03-28T06:39:56.579Z,99985.70
2018-03-28T06:42:31.696Z,99986.07
2018-03-28T06:45:06.882Z,99973.23
2018-03-28T06:47:41.592Z,99967.86
2018-03-28T06:50:16.701Z,99960.59
2018-03-28T06:52:51.492Z,99960.22
2018-03-28T06:55:26.108Z,99962.20
2018-03-28T06:58:01.414Z,99958.17
2018-03-28T07:00:36.558Z,99946.97
2018-03-28T07:03:11.881Z,99947.20
2018-03-28T07:05:46.988Z,99948.18
2018-03-28T07:08:22.131Z,99940.44
2018-03-28T07:10:56.862Z,99948.08
2018-03-28T07:13:31.848Z,99943.41
2018-03-28T07:16:06.576Z,99942.38
2018-03-28T07:18:41.640Z,99941.10
2018-03-28T07:21:16.591Z,99940.73
2018-03-28T07:23:51.580Z,99944.69
2018-03-28T07:26:26.674Z,99943.28
2018-03-28T07:29:01.228Z,99946.47
2018-03-28T07:31:36.116Z,99947.08
2018-03-28T07:34:12.007Z,99944.33
2018-03-28T07:36:46.411Z,99944.26
2018-03-28T07:39:21.359Z,99942.25
2018-03-28T07:41:56.522Z,99944.52
2018-03-28T07:44:31.540Z,99936.21
2018-03-28T07:47:06.670Z,99935.24
2018-03-28T07:49:41.578Z,99931.89
2018-03-28T07:52:16.607Z,99943.35
2018-03-28T07:54:51.191Z,99938.28
2018-03-28T07:57:26.080Z,99943.45
2018-03-28T08:00:01.204Z,99944.36
2018-03-28T08:02:36.393Z,99941.58
2018-03-28T08:05:11.912Z,99945.09
2018-03-28T08:07:46.974Z,99933.90
2018-03-28T08:10:21.914Z,99937.25
2018-03-28T08:12:56.712Z,99936.81
2018-03-28T08:15:31.747Z,99934.73
2018-03-28T08:18:06.263Z,99934.73
2018-03-28T08:20:41.375Z,99936.45
2018-03-28T08:23:16.812Z,99942.18
2018-03-28T08:25:51.752Z,99934.06
2018-03-28T08:28:26.832Z,99927.13
2018-03-28T08:31:01.335Z,99929.53
2018-03-28T08:33:36.588Z,99924.23
2018-03-28T08:36:11.932Z,99926.48
2018-03-28T08:38:47.056Z,99932.71
2018-03-28T08:41:21.969Z,99933.52
2018-03-28T08:43:56.959Z,99937.78
2018-03-28T08:46:32.026Z,99923.61
2018-03-28T08:49:06.996Z,99925.72
2018-03-28T08:51:41.988Z,99923.77
2018-03-28T08:54:17.109Z,99919.55
2018-03-28T08:56:51.774Z,99923.69
2018-03-28T08:59:26.976Z,99915.56
2018-03-28T09:02:01.859Z,99911.70
2018-03-28T09:04:36.804Z,99921.02
2018-03-28T09:07:12.062Z,99919.84
2018-03-28T09:09:47.624Z,99920.22
2018-03-28T09:12:22.248Z,99918.84
2018-03-28T09:14:56.978Z,99912.75
2018-03-28T09:17:31.771Z,99909.89
2018-03-28T09:20:07.024Z,99909.00
2018-03-28T09:22:41.719Z,99902.73
2018-03-28T09:25:17.266Z,99906.88
2018-03-28T09:27:51.764Z,99897.52
2018-03-28T09:30:26.750Z,99900.14
2018-03-28T09:33:01.811Z,99901.39
2018-03-28T09:35:36.767Z,99902.37
2018-03-28T09:38:12.172Z,99901.08
2018-03-28T09:40:47.189Z,99897.57
2018-03-28T09:43:22.075Z,99894.19
2018-03-28T09:45:57.040Z,99890.97
2018-03-28T09:48:31.885Z,99883.80
2018-03-28T09:51:06.907Z,99884.11
2018-03-28T09:53:41.768Z,99881.08
2018-03-28T09:56:16.904Z,99877.21
2018-03-28T09:58:51.970Z,99876.62
2018-03-28T10:01:29.961Z,99879.28
2018-03-28T10:04:10.248Z,99880.63
2018-03-28T10:06:44.644Z,99875.97
2018-03-28T10:09:19.967Z,99872.91
2018-03-28T10:11:55.880Z,99864.78
2018-03-28T10:14:30.779Z,99875.06
2018-03-28T10:17:05.067Z,99874.55
2018-03-28T10:19:40.091Z,99868.53
2018-03-28T10:22:14.916Z,99875.14
2018-03-28T10:24:50.059Z,99871.55
2018-03-28T10:27:25.015Z,99874.11
2018-03-28T10:29:59.832Z,99871.23
2018-03-28T10:32:34.805Z,99860.31
2018-03-28T10:35:09.958Z,99851.62
2018-03-28T10:37:44.515Z,99845.70
2018-03-28T10:40:19.272Z,99852.73
2018-03-28T10:42:53.991Z,99836.64
2018-03-28T10:45:29.783Z,99841.02
2018-03-28T10:48:04.863Z,99838.83
2018-03-28T10:50:40.308Z,99831.31
2018-03-28T10:53:15.455Z,99832.55
2018-03-28T10:55:50.208Z,99821.72
2018-03-28T10:58:25.280Z,99828.77
2018-03-28T11:01:00.175Z,99824.57
2018-03-28T11:03:35.036Z,99812.44
2018-03-28T11:06:10.076Z,99815.91
2018-03-28T11:08:44.980Z,99826.34
2018-03-28T11:11:20.152Z,99817.70
2018-03-28T11:13:54.559Z,99814.90
2018-03-28T11:16:29.726Z,99817.64
2018-03-28T11:19:04.537Z,99817.09
2018-03-28T11:21:40.057Z,99803.55
2018-03-28T11:24:14.808Z,99790.94
2018-03-28T11:26:50.015Z,99789.95
2018-03-28T11:29:24.539Z,99794.96
2018-03-28T11:31:59.452Z,99794.67
2018-03-28T11:34:34.515Z,99794.04
2018-03-28T11:37:10.044Z,99793.27
2018-03-28T11:39:44.972Z,99790.57
2018-03-28T11:42:20.000Z,99782.29
2018-03-28T11:44:55.056Z,99787.26
2018-03-28T11:47:30.477Z,99785.34
2018-03-28T11:50:04.846Z,99783.56
2018-03-28T11:52:40.189Z,99777.13
2018-03-28T11:55:15.189Z,99770.63
2018-03-28T11:57:50.192Z,99768.91
2018-03-28T12:00:25.119Z,99774.78
2018-03-28T12:03:00.076Z,99766.93
2018-03-28T12:05:35.075Z,99766.79
2018-03-28T12:08:09.587Z,99758.08
2018-03-28T12:10:44.556Z,99758.57
2018-03-28T12:13:19.484Z,99758.77
2018-03-28T12:15:54.219Z,99752.45
2018-03-28T12:18:29.358Z,99749.27
2018-03-28T12:21:04.182Z,99749.98
2018-03-28T12:23:38.839Z,99742.34
2018-03-28T12:26:14.402Z,99741.79
2018-03-28T12:28:49.575Z,99728.48
2018-03-28T12:31:24.334Z,99724.55
2018-03-28T12:33:59.139Z,99716.34
2018-03-28T12:36:33.641Z,99715.80
2018-03-28T12:39:07.903Z,99711.37
2018-03-28T12:41:43.126Z,99700.73
2018-03-28T12:44:18.342Z,99697.23
2018-03-28T12:46:53.723Z,99693.77
2018-03-28T12:49:28.317Z,99687.20
2018-03-28T12:52:03.354Z,99688.34
2018-03-28T12:54:38.242Z,99690.33
2018-03-28T12:57:12.791Z,99681.37
2018-03-28T12:59:48.254Z,99674.47
2018-03-28T13:02:23.466Z,99662.62
2018-03-28T13:04:58.379Z,99665.59
2018-03-28T13:07:32.771Z,99663.25
2018-03-28T13:10:07.646Z,99660.27
2018-03-28T13:12:42.385Z,99652.55
2018-03-28T13:15:17.279Z,99646.88
2018-03-28T13:17:52.227Z,99640.95
2018-03-28T13:20:26.978Z,99648.33
2018-03-28T13:23:02.425Z,99638.61
2018-03-28T13:25:37.307Z,99633.05
2018-03-28T13:28:12.721Z,99626.05
2018-03-28T13:30:47.798Z,99620.78
2018-03-28T13:33:22.747Z,99618.05
2018-03-28T13:35:57.633Z,99610.52
2018-03-28T13:38:32.527Z,99598.59
2018-03-28T13:41:07.454Z,99592.18
2018-03-28T13:43:42.168Z,99587.70
2018-03-28T13:46:17.555Z,99587.06
2018-03-28T13:48:52.363Z,99587.68
2018-03-28T13:51:27.272Z,99587.44
2018-03-28T13:54:01.752Z,99583.13
2018-03-28T13:56:36.480Z,99582.20
2018-03-28T13:59:12.683Z,99577.61
2018-03-28T14:01:47.495Z,99566.23
2018-03-28T14:04:22.648Z,99562.66
2018-03-28T14:06:57.248Z,99554.55
2018-03-28T14:09:32.306Z,99550.84
2018-03-28T14:12:07.851Z,99553.20
2018-03-28T14:14:42.871Z,99548.64
2018-03-28T14:17:17.918Z,99540.55
2018-03-28T14:19:52.523Z,99538.48
2018-03-28T14:22:27.591Z,99533.28
2018-03-28T14:25:02.516Z,99530.83
2018-03-28T14:27:38.331Z,99526.89
2018-03-28T14:30:12.918Z,99521.03
2018-03-28T14:32:48.360Z,99516.97
2018-03-28T14:35:22.873Z,99509.45
2018-03-28T14:37:58.013Z,99502.23
2018-03-28T14:40:33.177Z,99497.84
2018-03-28T14:43:08.379Z,99496.31
2018-03-28T14:45:43.530Z,99489.22
2018-03-28T14:48:18.541Z,99483.13
2018-03-28T14:50:58.417Z,99479.25
2018-03-28T14:53:32.914Z,99478.11
2018-03-28T14:56:07.684Z,99473.69
2018-03-28T14:58:42.784Z,99476.48
2018-03-28T15:01:17.492Z,99468.77
2018-03-28T15:03:52.584Z,99462.86
2018-03-28T15:06:27.892Z,99465.62
2018-03-28T15:09:02.947Z,99467.59
2018-03-28T15:11:37.835Z,99461.42
2018-03-28T15:14:12.909Z,99454.57
2018-03-28T15:16:47.741Z,99445.50
2018-03-28T15:19:22.451Z,99442.77
2018-03-28T15:21:57.606Z,99436.66
2018-03-28T15:24:32.616Z,99437.60
2018-03-28T15:27:07.612Z,99425.73
2018-03-28T15:29:42.613Z,99425.30
2018-03-28T15:32:17.612Z,99423.92
2018-03-28T15:34:52.610Z,99411.12
2018-03-28T15:37:27.718Z,99410.24
2018-03-28T15:40:02.535Z,99417.23
2018-03-28T15:42:37.592Z,99415.03
2018-03-28T15:45:12.987Z,99410.01
2018-03-28T15:47:48.108Z,99404.02
2018-03-28T15:50:23.108Z,99406.01
2018-03-28T15:52:58.556Z,99403.39
2018-03-28T15:55:33.984Z,99397.11
2018-03-28T15:58:08.766Z,99389.92
2018-03-28T16:00:43.976Z,99387.99
2018-03-28T16:06:19.215Z,99378.52
2018-03-28T16:08:53.987Z,99376.40
2018-03-28T16:11:29.155Z,99367.98
2018-03-28T16:14:03.776Z,99358.31
2018-03-28T16:16:38.843Z,99356.89
2018-03-28T16:19:13.655Z,99353.24
2018-03-28T16:21:48.728Z,99354.27
2018-03-28T16:24:23.624Z,99346.37
2018-03-28T16:26:58.406Z,99347.06
2018-03-28T16:29:33.251Z,99344.38
2018-03-28T16:32:08.239Z,99343.03
2018-03-28T16:34:43.019Z,99331.33
2018-03-28T16:37:18.125Z,99334.94
2018-03-28T16:39:52.742Z,99329.78
2018-03-28T16:42:27.772Z,99329.45
2018-03-28T16:45:02.196Z,99325.63
2018-03-28T16:47:37.660Z,99321.13
2018-03-28T16:50:12.997Z,99310.33
2018-03-28T16:52:47.840Z,99293.49
2018-03-28T16:55:22.879Z,99300.80
2018-03-28T16:57:57.685Z,99298.88
2018-03-28T17:00:32.612Z,99295.34
2018-03-28T17:03:07.985Z,99274.43
2018-03-28T17:05:42.895Z,99258.98
2018-03-28T17:08:18.037Z,99250.87
2018-03-28T17:10:52.819Z,99242.19
2018-03-28T17:13:27.834Z,99241.91
2018-03-28T17:16:02.694Z,99251.59
2018-03-28T17:18:37.775Z,99254.67
2018-03-28T17:21:15.083Z,99258.30
2018-03-28T17:23:50.307Z,99254.76
2018-03-28T17:26:26.093Z,99248.61
2018-03-28T17:29:00.916Z,99231.80
2018-03-28T17:31:35.704Z,99223.33
2018-03-28T17:34:10.836Z,99211.42
2018-03-28T17:36:45.843Z,99214.36
2018-03-28T17:39:20.504Z,99221.69
2018-03-28T17:41:55.259Z,99212.88
2018-03-28T17:44:30.163Z,99206.77
2018-03-28T17:47:05.012Z,99195.03
2018-03-28T17:49:40.117Z,99196.09
2018-03-28T17:52:14.816Z,99204.16
2018-03-28T17:54:49.931Z,99196.03
2018-03-28T17:57:28.480Z,99187.28
2018-03-28T18:00:03.144Z,99187.58
2018-03-28T18:02:38.705Z,99190.24
2018-03-28T18:05:13.551Z,99179.67
2018-03-28T18:07:48.407Z,99177.56
2018-03-28T18:10:23.823Z,99179.92
2018-03-28T18:12:58.898Z,99167.27
2018-03-28T18:15:33.839Z,99158.09
2018-03-28T18:18:08.866Z,99154.47
2018-03-28T18:20:43.763Z,99147.46
2018-03-28T18:23:18.634Z,99137.73
2018-03-28T18:25:53.407Z,99124.64
2018-03-28T18:28:28.516Z,99130.41
2018-03-28T18:31:03.927Z,99132.63
2018-03-28T18:33:39.415Z,99129.18
2018-03-28T18:36:14.347Z,99121.91
2018-03-28T18:38:49.351Z,99111.41
2018-03-28T18:41:24.492Z,99098.22
2018-03-28T18:43:59.095Z,99104.58
2018-03-28T18:46:36.068Z,99101.05
2018-03-28T18:49:10.993Z,99098.48
2018-03-28T18:51:45.730Z,99104.53
2018-03-28T18:54:20.681Z,99099.66
2018-03-28T18:56:55.358Z,99095.98
2018-03-28T18:59:30.731Z,99097.72
2018-03-28T19:02:04.937Z,99095.41
2018-03-28T19:04:40.039Z,99086.28
2018-03-28T19:07:14.922Z,99089.95
2018-03-28T19:09:49.979Z,99076.52
2018-03-28T19:12:24.566Z,99073.48
2018-03-28T19:14:59.424Z,99070.27
2018-03-28T19:17:34.427Z,99065.98
2018-03-28T19:20:09.287Z,99060.22
2018-03-28T19:22:44.155Z,99063.42
2018-03-28T19:25:19.213Z,99061.70
2018-03-28T19:27:54.121Z,99054.47
2018-03-28T19:30:29.708Z,99042.75
2018-03-28T19:33:04.625Z,99038.38
2018-03-28T19:35:40.020Z,99041.81
2018-03-28T19:38:15.304Z,99029.58
2018-03-28T19:40:50.183Z,99033.23
2018-03-28T19:43:24.650Z,99027.80
2018-03-28T19:45:59.142Z,99024.55
2018-03-28T19:48:34.935Z,99025.63
2018-03-28T19:51:10.012Z,99028.24
2018-03-28T19:53:44.522Z,99014.45
2018-03-28T19:56:19.535Z,99016.94
2018-03-28T19:58:54.623Z,99009.19
2018-03-28T20:01:30.142Z,99011.57
2018-03-28T20:04:05.150Z,99008.83
2018-03-28T20:06:40.135Z,99009.89
2018-03-28T20:09:14.644Z,99011.15
2018-03-28T20:11:49.816Z,99008.75
2018-03-28T20:14:25.306Z,98999.88
2018-03-28T20:17:00.210Z,99003.45
2018-03-28T20:19:35.184Z,98998.31
2018-03-28T20:22:10.347Z,98989.80
2018-03-28T20:24:45.178Z,98990.34
2018-03-28T20:27:19.768Z,98985.14
2018-03-28T20:29:55.295Z,98987.25
2018-03-28T20:32:30.345Z,98983.43
2018-03-28T20:35:05.400Z,98987.75
2018-03-28T20:37:40.384Z,98990.92
2018-03-28T20:40:15.875Z,98984.64
2018-03-28T20:42:50.803Z,98985.41
2018-03-28T20:45:25.363Z,98985.09
2018-03-28T20:47:59.841Z,98990.48
2018-03-28T20:50:34.781Z,98992.73
2018-03-28T20:53:10.258Z,98995.58
2018-03-28T20:55:45.344Z,99006.70
2018-03-28T20:58:20.283Z,99005.16
2018-03-28T21:00:54.910Z,99017.71
2018-03-28T21:03:29.451Z,99021.29
2018-03-28T21:06:03.875Z,99023.27
2018-03-28T21:08:38.595Z,99014.23
2018-03-28T21:11:13.394Z,99015.73
2018-03-28T21:13:48.431Z,99007.27
2018-03-28T21:16:23.341Z,99005.38
2018-03-28T21:18:58.419Z,99013.31
2018-03-28T21:21:33.423Z,99014.95
2018-03-28T21:24:09.043Z,99019.80
2018-03-28T21:26:43.871Z,99022.59
2018-03-28T21:29:19.053Z,99030.44
2018-03-28T21:31:53.641Z,99033.63
2018-03-28T21:34:28.692Z,99038.27
2018-03-28T21:37:03.559Z,99037.00
2018-03-28T21:39:38.484Z,99040.89
2018-03-28T21:42:13.809Z,99048.13
2018-03-28T21:44:48.779Z,99048.77
2018-03-28T21:47:23.529Z,99045.74
2018-03-28T21:49:58.562Z,99047.64
2018-03-28T21:52:33.961Z,99048.64
2018-03-28T21:55:08.619Z,99052.45
2018-03-28T21:57:43.534Z,99056.73
2018-03-28T22:00:18.395Z,99058.91
2018-03-28T22:03:01.166Z,99069.00
2018-03-28T22:05:38.693Z,99081.53
2018-03-28T22:08:13.843Z,99094.64
2018-03-28T22:10:48.979Z,99099.33
2018-03-28T22:13:23.907Z,99109.45
2018-03-28T22:15:58.830Z,99130.02
2018-03-28T22:18:33.537Z,99132.67
2018-03-28T22:21:08.455Z,99140.20
2018-03-28T22:23:43.115Z,99157.72
2018-03-28T22:26:17.706Z,99165.47
2018-03-28T22:28:52.682Z,99183.23
2018-03-28T22:31:27.754Z,99185.59
2018-03-28T22:34:02.564Z,99189.95
2018-03-28T22:36:37.519Z,99198.07
2018-03-28T22:39:13.920Z,99198.07
2018-03-28T22:41:49.494Z,99212.52
2018-03-28T22:44:24.068Z,99211.03
2018-03-28T22:46:59.190Z,99226.17
2018-03-28T22:49:34.098Z,99230.22
2018-03-28T22:52:09.042Z,99246.92
2018-03-28T22:54:44.202Z,99253.06
2018-03-28T22:57:19.196Z,99255.38
2018-03-28T22:59:53.796Z,99274.16
2018-03-28T23:02:28.880Z,99277.60
2018-03-28T23:05:03.561Z,99285.34
2018-03-28T23:07:39.182Z,99293.75
2018-03-28T23:10:14.484Z,99297.20
2018-03-28T23:12:49.183Z,99317.77
2018-03-28T23:15:23.970Z,99313.55
2018-03-28T23:17:58.854Z,99314.72
2018-03-28T23:20:33.675Z,99337.72
2018-03-28T23:23:09.191Z,99335.52
2018-03-28T23:25:43.966Z,99349.20
2018-03-28T23:28:18.594Z,99356.60
2018-03-28T23:30:53.389Z,99366.83
2018-03-28T23:33:28.050Z,99363.17
2018-03-28T23:36:03.052Z,99375.34
2018-03-28T23:38:37.751Z,99385.75
2018-03-28T23:41:13.934Z,99387.12
2018-03-28T23:43:48.727Z,99388.64
2018-03-28T23:46:23.719Z,99398.58
2018-03-28T23:48:58.639Z,99397.25
2018-03-28T23:51:33.714Z,99402.03
2018-03-28T23:54:08.716Z,99403.67
2018-03-28T23:56:44.118Z,99406.26
2018-03-28T23:59:19.074Z,99426.11
